Time;durP1;ratioP1;P1;durP2;ratioP2;P2;SDS_P1;SDS_P2;PMS_P1;PMS_P2;Temp;Humidity;BMP_temperature;BMP_pressure;BME280_temperature;BME280_humidity;BME280_pressure;Samples;Min_cycle;Max_cycle;Signal;HPM_P1;HPM_P2
2021/11/13 00:01:19;;;;;;;34.70;16.20;;;5.60;99.90;;;;;;4911856;23;20499;-54
2021/11/13 00:03:45;;;;;;;22.97;11.93;;;5.60;99.90;;;;;;4891521;29;20439;-52
2021/11/13 00:06:12;;;;;;;32.80;12.60;;;5.50;99.90;;;;;;4902512;23;21593;-54
2021/11/13 00:08:39;;;;;;;30.43;14.03;;;5.50;99.90;;;;;;4910170;29;20474;-56
2021/11/13 00:11:06;;;;;;;36.00;13.70;;;5.40;99.90;;;;;;4917827;23;20471;-51
2021/11/13 00:13:33;;;;;;;42.20;15.87;;;5.40;99.90;;;;;;4910385;29;20439;-52
2021/11/13 00:16:00;;;;;;;34.40;15.70;;;5.40;99.90;;;;;;4910616;29;20780;-50
2021/11/13 00:18:28;;;;;;;33.63;16.57;;;5.50;99.90;;;;;;4900248;23;20581;-51
2021/11/13 00:20:55;;;;;;;29.33;14.90;;;5.40;99.90;;;;;;4892136;29;20487;-51
2021/11/13 00:23:21;;;;;;;31.93;14.77;;;5.40;99.90;;;;;;4892644;29;20455;-53
2021/11/13 00:25:48;;;;;;;35.20;15.57;;;5.50;99.90;;;;;;4892611;29;20467;-53
2021/11/13 00:28:15;;;;;;;29.60;12.70;;;5.50;99.90;;;;;;4911944;23;20494;-52
2021/11/13 00:30:43;;;;;;;27.27;14.23;;;5.50;99.90;;;;;;4910759;29;20506;-52
2021/11/13 00:33:10;;;;;;;38.60;15.73;;;5.60;99.90;;;;;;4917156;23;20530;-53
2021/11/13 00:35:38;;;;;;;37.40;14.83;;;5.60;99.90;;;;;;4910536;29;20463;-55
2021/11/13 00:38:05;;;;;;;37.77;14.30;;;5.60;99.90;;;;;;4928439;23;20503;-53
2021/11/13 00:40:32;;;;;;;33.23;14.67;;;5.60;99.90;;;;;;4897588;29;20458;-58
2021/11/13 00:43:04;;;;;;;40.87;13.90;;;5.50;99.90;;;;;;4933021;23;20494;-57
2021/11/13 00:45:31;;;;;;;47.73;12.67;;;5.60;99.90;;;;;;4889171;29;20504;-58
2021/11/13 00:47:58;;;;;;;40.13;14.80;;;5.60;99.90;;;;;;4888208;29;20896;-53
2021/11/13 00:50:25;;;;;;;34.70;14.63;;;5.60;99.90;;;;;;4887316;29;20479;-55
2021/11/13 00:52:53;;;;;;;31.60;15.17;;;5.60;99.90;;;;;;4887769;29;20454;-58
2021/11/13 00:55:21;;;;;;;40.40;14.50;;;5.60;99.90;;;;;;4887669;29;20464;-57
2021/11/13 00:57:48;;;;;;;29.33;14.00;;;5.60;99.90;;;;;;4887191;29;20447;-55
2021/11/13 01:00:18;;;;;;;28.77;13.80;;;5.50;99.90;;;;;;4888177;29;20447;-57
2021/11/13 01:02:45;;;;;;;27.80;15.10;;;5.50;99.90;;;;;;4895198;29;20491;-55
2021/11/13 01:05:12;;;;;;;34.63;17.23;;;5.50;99.90;;;;;;4890739;29;20495;-56
2021/11/13 01:07:39;;;;;;;29.13;16.27;;;5.50;99.90;;;;;;4891647;29;20518;-52
2021/11/13 01:10:09;;;;;;;36.60;14.33;;;5.50;99.90;;;;;;4889922;29;20458;-57
2021/11/13 01:12:38;;;;;;;30.77;13.80;;;5.50;99.90;;;;;;4889441;29;20447;-57
2021/11/13 01:15:07;;;;;;;49.50;15.73;;;5.50;99.90;;;;;;4889899;29;20459;-56
2021/11/13 01:17:35;;;;;;;27.90;14.97;;;5.40;99.90;;;;;;4889774;29;20451;-53
2021/11/13 01:20:02;;;;;;;30.30;14.00;;;5.50;99.90;;;;;;4889329;29;20459;-56
2021/11/13 01:22:29;;;;;;;37.57;16.90;;;5.50;99.90;;;;;;4889651;29;20986;-51
2021/11/13 01:24:56;;;;;;;26.93;14.37;;;5.50;99.90;;;;;;4890163;29;20546;-51
2021/11/13 01:27:24;;;;;;;26.63;14.60;;;5.50;99.90;;;;;;4877057;23;1085628;-56
2021/11/13 01:29:52;;;;;;;35.33;14.07;;;5.50;99.90;;;;;;4909637;29;20703;-57
2021/11/13 01:32:20;;;;;;;27.27;12.87;;;5.60;99.90;;;;;;4909545;29;20984;-55
2021/11/13 01:37:25;;;;;;;25.03;14.43;;;5.50;99.90;;;;;;4922264;23;20477;-52
2021/11/13 01:39:54;;;;;;;34.93;16.10;;;5.50;99.90;;;;;;4909670;29;20478;-51
2021/11/13 01:42:25;;;;;;;43.70;16.63;;;5.50;99.90;;;;;;4909276;29;20609;-57
2021/11/13 01:44:54;;;;;;;28.63;15.83;;;5.60;99.90;;;;;;4909406;29;20438;-59
2021/11/13 01:47:22;;;;;;;30.63;14.90;;;5.60;99.90;;;;;;4909656;29;20489;-55
2021/11/13 01:49:49;;;;;;;31.53;16.37;;;5.60;99.90;;;;;;4910202;29;20462;-58
2021/11/13 01:52:16;;;;;;;34.03;18.80;;;5.70;99.90;;;;;;4909921;29;20978;-55
2021/11/13 01:54:44;;;;;;;28.43;12.67;;;5.70;99.90;;;;;;4909922;29;20454;-54
2021/11/13 01:57:20;;;;;;;25.50;13.87;;;5.70;99.90;;;;;;4909409;29;20486;-58
2021/11/13 01:59:49;;;;;;;33.53;14.40;;;5.70;99.90;;;;;;4909176;29;20450;-58
2021/11/13 02:02:17;;;;;;;28.10;13.47;;;5.70;99.90;;;;;;4909385;29;20555;-55
2021/11/13 02:04:44;;;;;;;32.70;14.00;;;5.70;99.90;;;;;;4910102;29;20470;-57
2021/11/13 02:07:11;;;;;;;37.03;14.53;;;5.70;99.90;;;;;;4909597;29;20492;-57
2021/11/13 02:09:38;;;;;;;31.87;13.03;;;5.60;99.90;;;;;;4909806;29;21004;-57
2021/11/13 02:12:05;;;;;;;36.80;15.97;;;5.50;99.90;;;;;;4932778;23;20526;-54
2021/11/13 02:14:32;;;;;;;23.77;12.50;;;5.50;99.90;;;;;;4918602;29;20435;-54
2021/11/13 02:16:59;;;;;;;27.77;15.20;;;5.50;99.90;;;;;;4918555;29;20487;-56
2021/11/13 02:19:27;;;;;;;27.93;14.13;;;5.50;99.90;;;;;;4919321;29;20471;-54
2021/11/13 02:21:55;;;;;;;25.87;14.07;;;5.50;99.90;;;;;;4917430;23;20497;-57
2021/11/13 02:24:22;;;;;;;28.33;13.20;;;5.50;99.90;;;;;;4909422;29;20435;-53
2021/11/13 02:26:48;;;;;;;28.07;14.00;;;5.50;99.90;;;;;;4910046;29;20447;-58
2021/11/13 02:29:15;;;;;;;37.67;15.70;;;5.50;99.90;;;;;;4909535;29;20487;-56
2021/11/13 02:31:44;;;;;;;30.83;14.63;;;5.50;99.90;;;;;;4908790;29;20454;-58
2021/11/13 02:34:14;;;;;;;29.27;11.17;;;5.50;99.90;;;;;;4918918;23;20498;-56
2021/11/13 02:36:42;;;;;;;28.90;12.50;;;5.50;99.90;;;;;;4911052;29;20502;-51
2021/11/13 02:39:12;;;;;;;30.53;14.00;;;5.60;99.90;;;;;;4908111;29;20479;-55
2021/11/13 02:41:39;;;;;;;28.77;13.30;;;5.60;99.90;;;;;;4907612;29;20494;-58
2021/11/13 02:44:07;;;;;;;32.27;16.20;;;5.60;99.90;;;;;;4908247;29;20459;-57
2021/11/13 02:46:33;;;;;;;30.27;13.50;;;5.60;99.90;;;;;;4908435;29;20475;-57
2021/11/13 02:49:02;;;;;;;23.50;12.73;;;5.60;99.90;;;;;;4908502;29;20537;-53
2021/11/13 02:51:31;;;;;;;25.00;13.00;;;5.60;99.90;;;;;;4908062;29;20466;-57
2021/11/13 02:54:00;;;;;;;28.97;13.60;;;5.60;99.90;;;;;;4908651;29;20434;-57
2021/11/13 02:56:28;;;;;;;23.63;13.33;;;5.60;99.90;;;;;;4908571;29;20482;-56
2021/11/13 02:58:55;;;;;;;43.13;18.87;;;5.60;99.90;;;;;;4909420;29;20482;-51
2021/11/13 03:01:23;;;;;;;46.17;21.07;;;5.60;99.90;;;;;;4908260;29;20981;-56
2021/11/13 03:03:51;;;;;;;37.93;21.50;;;5.60;99.90;;;;;;4908571;29;20450;-58
2021/11/13 03:06:18;;;;;;;48.87;22.57;;;5.60;99.90;;;;;;4908794;29;20461;-57
2021/11/13 03:08:46;;;;;;;37.40;17.50;;;5.50;99.90;;;;;;4908602;29;20836;-54
2021/11/13 03:11:15;;;;;;;27.33;16.00;;;5.50;99.90;;;;;;4918107;23;20505;-55
2021/11/13 03:13:48;;;;;;;30.20;13.97;;;5.50;99.90;;;;;;4917891;29;20433;-54
2021/11/13 03:16:23;;;;;;;26.90;14.73;;;5.50;99.90;;;;;;4914938;29;20478;-55
2021/11/13 03:18:50;;;;;;;24.23;11.57;;;5.50;99.90;;;;;;4908449;29;20454;-57
2021/11/13 03:21:17;;;;;;;27.63;13.37;;;5.50;99.90;;;;;;4908676;29;20450;-57
2021/11/13 03:23:46;;;;;;;27.70;12.40;;;5.40;99.90;;;;;;4908507;29;20824;-56
2021/11/13 03:26:18;;;;;;;36.53;12.67;;;5.40;99.90;;;;;;4910114;29;20541;-56
2021/11/13 03:28:49;;;;;;;31.03;13.93;;;5.40;99.90;;;;;;4908424;29;20538;-52
2021/11/13 03:31:16;;;;;;;25.67;12.07;;;5.40;99.90;;;;;;4908659;29;20431;-54
2021/11/13 03:33:45;;;;;;;28.67;14.40;;;5.50;99.90;;;;;;4908456;29;20450;-54
2021/11/13 03:36:12;;;;;;;35.73;14.70;;;5.50;99.90;;;;;;4908276;29;20451;-52
2021/11/13 03:38:40;;;;;;;21.73;11.87;;;5.50;99.90;;;;;;4907612;29;20458;-54
2021/11/13 03:41:07;;;;;;;28.67;13.30;;;5.40;99.90;;;;;;4909521;29;20510;-54
2021/11/13 03:43:36;;;;;;;32.37;12.67;;;5.40;99.90;;;;;;4907986;29;20533;-55
2021/11/13 03:46:05;;;;;;;23.70;11.37;;;5.40;99.90;;;;;;4907787;29;20450;-57
2021/11/13 03:48:32;;;;;;;28.70;14.40;;;5.40;99.90;;;;;;4908260;29;20486;-57
2021/11/13 03:51:03;;;;;;;32.43;16.07;;;5.40;99.90;;;;;;4908685;29;20963;-57
2021/11/13 03:53:35;;;;;;;28.00;11.13;;;5.30;99.90;;;;;;4914883;23;20526;-58
2021/11/13 03:56:02;;;;;;;28.57;11.93;;;5.30;99.90;;;;;;4908764;29;20447;-55
2021/11/13 03:58:31;;;;;;;31.57;13.10;;;5.30;99.90;;;;;;4910364;23;20494;-55
2021/11/13 04:01:01;;;;;;;27.10;14.33;;;5.30;99.90;;;;;;4888840;29;20471;-55
2021/11/13 04:03:29;;;;;;;26.63;12.33;;;5.30;99.90;;;;;;4889943;29;20502;-54
2021/11/13 04:05:56;;;;;;;27.00;13.77;;;5.30;99.90;;;;;;4889821;29;20475;-56
2021/11/13 04:08:23;;;;;;;24.70;10.73;;;5.30;99.90;;;;;;4889896;29;20467;-56
2021/11/13 04:10:49;;;;;;;27.83;12.90;;;5.30;99.90;;;;;;4890647;29;20559;-54
2021/11/13 04:13:17;;;;;;;28.97;12.73;;;5.40;99.90;;;;;;4889663;29;20468;-57
2021/11/13 04:15:43;;;;;;;29.03;12.60;;;5.40;99.90;;;;;;4891827;29;20452;-54
2021/11/13 04:18:10;;;;;;;25.77;12.77;;;5.40;99.90;;;;;;4889837;29;20479;-53
2021/11/13 04:20:38;;;;;;;27.83;13.73;;;5.40;99.90;;;;;;4890051;29;20458;-56
2021/11/13 04:23:05;;;;;;;25.00;10.60;;;5.40;99.90;;;;;;4889391;29;20848;-57
2021/11/13 04:25:32;;;;;;;26.87;12.60;;;5.40;99.90;;;;;;4888495;29;20555;-56
2021/11/13 04:27:59;;;;;;;24.93;11.60;;;5.40;99.90;;;;;;4884810;29;20451;-55
2021/11/13 04:30:25;;;;;;;30.53;11.67;;;5.40;99.90;;;;;;4888593;29;20466;-54
2021/11/13 04:32:53;;;;;;;16.33;11.07;;;5.40;99.90;;;;;;4889216;29;20449;-52
2021/11/13 04:35:23;;;;;;;31.30;12.47;;;5.40;99.90;;;;;;4901869;23;20494;-56
2021/11/13 04:37:57;;;;;;;25.87;12.10;;;5.40;99.90;;;;;;4911629;29;20462;-57
2021/11/13 04:40:26;;;;;;;25.17;11.57;;;5.40;99.90;;;;;;4911786;29;20494;-55
2021/11/13 04:42:55;;;;;;;28.07;12.40;;;5.40;99.90;;;;;;4911522;29;20494;-55
2021/11/13 04:45:22;;;;;;;27.13;13.37;;;5.50;99.90;;;;;;4911038;29;20478;-51
2021/11/13 04:47:52;;;;;;;22.23;11.00;;;5.50;99.90;;;;;;4911311;29;20435;-56
2021/11/13 04:50:24;;;;;;;31.93;12.73;;;5.50;99.90;;;;;;4910624;29;20445;-54
2021/11/13 04:52:53;;;;;;;27.47;12.70;;;5.50;99.90;;;;;;4910482;23;20505;-54
2021/11/13 04:55:20;;;;;;;29.03;13.40;;;5.50;99.90;;;;;;4893150;29;20479;-52
2021/11/13 04:57:48;;;;;;;23.60;13.83;;;5.50;99.90;;;;;;4891927;29;20451;-58
2021/11/13 05:00:16;;;;;;;24.83;12.27;;;5.60;99.90;;;;;;4892041;29;20459;-54
2021/11/13 05:02:43;;;;;;;26.43;11.60;;;5.70;99.90;;;;;;4892031;29;20491;-53
2021/11/13 05:05:10;;;;;;;28.80;12.63;;;5.70;99.90;;;;;;4891360;29;20479;-56
2021/11/13 05:07:37;;;;;;;23.97;10.87;;;5.70;99.90;;;;;;4898538;23;20572;-53
2021/11/13 05:10:17;;;;;;;24.33;10.13;;;5.70;99.90;;;;;;4892788;29;20443;-57
2021/11/13 05:12:44;;;;;;;24.13;11.10;;;5.80;99.90;;;;;;4891357;29;20455;-57
2021/11/13 05:15:12;;;;;;;25.40;12.83;;;5.80;99.90;;;;;;4891238;29;20491;-53
2021/11/13 05:17:40;;;;;;;32.83;13.50;;;5.80;99.90;;;;;;4891900;29;20491;-55
2021/11/13 05:20:11;;;;;;;33.63;11.63;;;5.70;99.90;;;;;;4892162;29;20451;-54
2021/11/13 05:22:39;;;;;;;20.83;11.37;;;5.70;99.90;;;;;;4891754;29;20475;-57
2021/11/13 05:25:11;;;;;;;32.77;11.33;;;5.60;99.90;;;;;;4891313;29;20471;-51
2021/11/13 05:27:38;;;;;;;26.87;11.20;;;5.60;99.90;;;;;;4891746;29;20475;-56
2021/11/13 05:30:08;;;;;;;28.30;12.47;;;5.50;99.90;;;;;;4891533;29;20471;-52
2021/11/13 05:32:37;;;;;;;27.73;12.13;;;5.50;99.90;;;;;;4891501;29;20443;-52
2021/11/13 05:35:05;;;;;;;22.50;9.60;;;5.50;99.90;;;;;;4891074;29;20463;-55
2021/11/13 05:37:32;;;;;;;26.60;12.13;;;5.50;99.90;;;;;;4891719;29;20515;-57
2021/11/13 05:39:58;;;;;;;37.70;13.57;;;5.40;99.90;;;;;;4891263;29;20451;-54
2021/11/13 05:42:26;;;;;;;30.10;11.10;;;5.40;99.90;;;;;;4891479;29;20460;-56
2021/11/13 05:44:53;;;;;;;30.13;13.07;;;5.40;99.90;;;;;;4891018;29;20837;-57
2021/11/13 05:47:20;;;;;;;26.17;12.60;;;5.40;99.90;;;;;;4891298;29;20542;-55
2021/11/13 05:49:46;;;;;;;32.47;12.93;;;5.50;99.90;;;;;;4925301;23;20489;-55
2021/11/13 05:52:15;;;;;;;26.13;11.37;;;5.50;99.90;;;;;;4910003;29;20487;-56
2021/11/13 05:54:42;;;;;;;22.17;11.07;;;5.60;99.90;;;;;;4909545;29;20447;-54
2021/11/13 05:57:09;;;;;;;30.57;12.43;;;5.60;99.90;;;;;;4910101;29;20528;-53
2021/11/13 05:59:37;;;;;;;28.87;13.27;;;5.60;99.90;;;;;;4909842;29;20520;-56
2021/11/13 06:02:05;;;;;;;19.07;11.10;;;5.60;99.90;;;;;;4910458;29;20451;-55
2021/11/13 06:04:34;;;;;;;23.97;10.17;;;5.70;99.90;;;;;;4910022;29;20506;-51
2021/11/13 06:07:01;;;;;;;22.87;12.13;;;5.60;99.90;;;;;;4913708;29;20446;-51
2021/11/13 06:09:28;;;;;;;21.67;10.40;;;5.70;99.90;;;;;;4918594;29;20470;-53
2021/11/13 06:11:55;;;;;;;25.03;10.17;;;5.70;99.90;;;;;;4912694;29;20459;-56
2021/11/13 06:14:22;;;;;;;20.00;10.00;;;5.70;99.90;;;;;;4916573;23;20481;-53
2021/11/13 06:16:50;;;;;;;23.77;10.90;;;5.70;99.90;;;;;;4923454;23;21047;-47
2021/11/13 06:19:16;;;;;;;23.00;11.07;;;5.80;99.90;;;;;;4921439;29;20483;-51
2021/11/13 06:21:43;;;;;;;22.77;11.97;;;5.80;99.90;;;;;;4943024;23;20506;-46
2021/11/13 06:24:10;;;;;;;25.73;9.90;;;5.90;99.90;;;;;;4921071;29;20517;-56
2021/11/13 06:26:38;;;;;;;25.73;11.53;;;5.90;99.90;;;;;;4928355;23;20486;-54
2021/11/13 06:29:08;;;;;;;30.43;13.10;;;5.90;99.90;;;;;;4921573;29;20450;-54
2021/11/13 06:31:37;;;;;;;20.60;8.73;;;5.90;99.90;;;;;;4927986;23;20502;-51
2021/11/13 06:34:06;;;;;;;24.13;12.37;;;5.90;99.90;;;;;;4921666;29;20467;-51
2021/11/13 06:36:32;;;;;;;18.37;11.57;;;5.90;99.90;;;;;;4928137;23;21006;-55
2021/11/13 06:38:59;;;;;;;18.23;11.30;;;5.90;99.90;;;;;;4921441;29;20507;-53
2021/11/13 06:41:29;;;;;;;27.73;10.77;;;5.90;99.90;;;;;;4937366;23;20532;-56
2021/11/13 06:43:56;;;;;;;27.50;11.77;;;5.90;99.90;;;;;;4902741;29;20471;-53
2021/11/13 06:46:23;;;;;;;28.67;14.70;;;5.90;99.90;;;;;;4940862;23;20522;-50
2021/11/13 06:48:51;;;;;;;18.70;9.40;;;5.80;99.90;;;;;;4921274;29;20495;-56
2021/11/13 06:51:21;;;;;;;23.93;10.90;;;5.80;99.90;;;;;;4957491;23;20457;-52
2021/11/13 06:53:52;;;;;;;27.33;13.10;;;5.80;99.90;;;;;;4902281;29;20505;-55
2021/11/13 06:58:53;;;;;;;29.70;13.73;;;5.80;99.90;;;;;;4906732;23;20471;-51
2021/11/13 07:01:22;;;;;;;24.40;12.10;;;6.00;99.90;;;;;;4902082;29;20455;-49
2021/11/13 07:11:32;;;;;;;28.07;11.80;;;6.00;99.90;;;;;;4915578;23;20488;-50
2021/11/13 07:13:59;;;;;;;34.73;12.70;;;5.90;99.90;;;;;;4882199;29;20445;-53
2021/11/13 07:16:36;;;;;;;21.67;8.47;;;5.80;99.90;;;;;;4894940;23;20585;-53
2021/11/13 07:19:06;;;;;;;24.67;13.03;;;6.80;99.90;;;;;;4900620;29;20447;-57
2021/11/13 07:21:38;;;;;;;27.63;12.90;;;7.90;99.90;;;;;;4906601;23;20490;-52
2021/11/13 07:24:05;;;;;;;22.53;10.57;;;8.10;99.90;;;;;;4901392;29;20475;-55
2021/11/13 07:26:38;;;;;;;29.17;11.43;;;7.80;99.90;;;;;;4904575;23;20484;-56
2021/11/13 07:29:07;;;;;;;24.23;12.10;;;7.50;99.90;;;;;;4881750;29;20465;-54
2021/11/13 07:31:35;;;;;;;25.17;11.03;;;7.30;99.90;;;;;;4904608;23;20448;-57
2021/11/13 07:34:05;;;;;;;20.87;10.40;;;7.10;99.90;;;;;;4881968;29;20484;-51
2021/11/13 07:36:32;;;;;;;18.40;9.33;;;7.00;99.90;;;;;;4890811;23;20444;-52
2021/11/13 07:38:59;;;;;;;25.40;10.50;;;6.80;99.90;;;;;;4899783;29;20531;-54
2021/11/13 07:41:27;;;;;;;17.17;10.33;;;6.70;99.90;;;;;;4900397;29;20470;-56
2021/11/13 07:44:00;;;;;;;21.57;10.87;;;6.60;99.90;;;;;;4908018;23;20560;-56
2021/11/13 07:46:28;;;;;;;21.50;11.03;;;6.50;99.90;;;;;;4900549;29;20436;-55
2021/11/13 07:48:56;;;;;;;22.73;10.77;;;6.40;99.90;;;;;;4892065;23;20484;-56
2021/11/13 07:51:22;;;;;;;27.03;12.33;;;6.40;99.90;;;;;;4881956;29;20455;-54
2021/11/13 07:53:53;;;;;;;24.83;11.80;;;6.30;99.90;;;;;;4903053;23;20551;-55
2021/11/13 07:56:20;;;;;;;24.30;12.77;;;6.30;99.90;;;;;;4900584;29;20431;-57
2021/11/13 07:58:50;;;;;;;28.17;10.40;;;6.30;99.90;;;;;;4937524;23;21058;-51
2021/11/13 08:01:23;;;;;;;19.47;11.00;;;6.30;99.90;;;;;;4900201;29;20497;-56
2021/11/13 08:03:51;;;;;;;31.10;11.97;;;6.30;99.90;;;;;;4897167;23;20496;-56
2021/11/13 08:06:18;;;;;;;14.90;9.30;;;6.30;99.90;;;;;;4881414;29;20591;-57
2021/11/13 08:08:47;;;;;;;17.23;9.53;;;6.30;99.90;;;;;;4896949;23;20499;-55
2021/11/13 08:11:17;;;;;;;21.33;11.03;;;6.30;99.90;;;;;;4898809;29;20507;-55
2021/11/13 08:13:46;;;;;;;20.77;9.67;;;6.30;99.90;;;;;;4900148;23;20502;-54
2021/11/13 08:16:17;;;;;;;17.40;9.30;;;6.40;99.90;;;;;;4880961;29;20480;-56
2021/11/13 08:18:46;;;;;;;23.27;11.13;;;6.50;99.90;;;;;;4909292;23;20499;-57
2021/11/13 08:21:13;;;;;;;24.07;12.07;;;6.40;99.90;;;;;;4900156;29;20447;-56
2021/11/13 08:23:41;;;;;;;15.87;9.77;;;6.40;99.90;;;;;;4904094;23;20488;-56
2021/11/13 08:28:53;;;;;;;24.30;11.07;;;6.50;99.90;;;;;;4908174;23;20498;-57
2021/11/13 08:31:20;;;;;;;26.20;11.80;;;6.50;99.90;;;;;;4900221;29;20428;-58
2021/11/13 08:33:49;;;;;;;21.17;9.87;;;6.60;99.90;;;;;;4907336;23;20471;-55
2021/11/13 08:36:16;;;;;;;18.43;9.33;;;6.50;99.90;;;;;;4881013;29;20460;-57
2021/11/13 08:41:24;;;;;;;27.10;11.70;;;6.60;99.90;;;;;;4933863;23;20522;-51
2021/11/13 08:43:51;;;;;;;20.73;10.63;;;6.60;99.90;;;;;;4882628;29;20502;-49
2021/11/13 08:46:18;;;;;;;24.63;13.70;;;6.70;99.90;;;;;;4890499;23;20480;-46
2021/11/13 08:48:46;;;;;;;31.77;12.43;;;6.80;99.90;;;;;;4882791;29;20448;-50
2021/11/13 08:51:14;;;;;;;24.33;13.20;;;6.80;99.90;;;;;;4905440;23;20495;-52
2021/11/13 08:53:43;;;;;;;26.10;12.30;;;6.80;99.90;;;;;;4882570;29;20448;-51
2021/11/13 08:56:22;;;;;;;40.10;14.67;;;6.70;99.90;;;;;;4902669;23;20491;-48
2021/11/13 08:58:49;;;;;;;31.07;12.90;;;6.80;99.90;;;;;;4901220;29;20431;-54
2021/11/13 09:01:16;;;;;;;23.63;11.57;;;6.70;99.90;;;;;;4896300;23;20488;-51
2021/11/13 09:03:45;;;;;;;22.83;10.10;;;6.80;99.90;;;;;;4882767;29;20484;-46
2021/11/13 09:06:15;;;;;;;27.73;11.90;;;6.80;99.90;;;;;;4890271;23;20563;-55
2021/11/13 09:08:43;;;;;;;22.47;10.77;;;6.80;99.90;;;;;;4882999;29;20468;-50
2021/11/13 09:11:13;;;;;;;23.20;9.17;;;6.90;99.90;;;;;;4890555;23;20480;-49
2021/11/13 09:13:40;;;;;;;27.30;13.17;;;7.00;99.90;;;;;;4883057;29;20435;-53
2021/11/13 09:16:10;;;;;;;20.33;9.63;;;7.00;99.90;;;;;;4890250;23;20480;-50
2021/11/13 09:18:40;;;;;;;28.77;13.10;;;7.00;99.90;;;;;;4883281;29;20471;-52
2021/11/13 09:21:12;;;;;;;21.20;10.87;;;7.10;99.90;;;;;;4889635;23;20496;-55
2021/11/13 09:23:41;;;;;;;29.13;14.13;;;7.10;99.90;;;;;;4885475;29;20479;-55
2021/11/13 09:26:11;;;;;;;23.93;10.70;;;7.10;99.90;;;;;;4941747;23;20547;-50
2021/11/13 09:28:40;;;;;;;22.90;9.97;;;7.00;99.90;;;;;;4904314;29;20486;-50
2021/11/13 09:31:08;;;;;;;20.23;11.00;;;7.00;99.90;;;;;;4909847;23;20481;-50
2021/11/13 09:33:36;;;;;;;23.17;9.83;;;7.00;99.90;;;;;;4885630;29;20425;-48
2021/11/13 09:38:32;;;;;;;21.23;9.87;;;7.20;99.90;;;;;;4909318;23;20523;-53
2021/11/13 09:41:02;;;;;;;24.87;11.47;;;7.30;99.90;;;;;;4904179;29;20245;-52
2021/11/13 09:43:30;;;;;;;24.43;10.60;;;7.30;99.90;;;;;;4911364;23;20485;-54
2021/11/13 09:46:00;;;;;;;21.37;9.60;;;7.30;99.90;;;;;;4904424;29;20479;-49
2021/11/13 09:48:29;;;;;;;17.43;9.47;;;7.40;99.90;;;;;;4912096;23;20494;-50
2021/11/13 09:50:55;;;;;;;17.97;9.17;;;7.40;99.90;;;;;;4904623;29;20459;-48
2021/11/13 09:53:25;;;;;;;20.67;9.97;;;7.50;99.90;;;;;;4911786;23;20491;-52
2021/11/13 09:55:54;;;;;;;17.90;8.80;;;7.60;99.90;;;;;;4904100;29;20435;-54
2021/11/13 09:58:23;;;;;;;19.90;10.90;;;7.90;99.90;;;;;;4914408;23;20488;-47
2021/11/13 10:00:51;;;;;;;22.80;10.27;;;8.00;99.90;;;;;;4885202;29;20788;-54
2021/11/13 10:03:19;;;;;;;18.90;10.00;;;8.20;99.90;;;;;;4892641;23;20483;-46
2021/11/13 10:05:46;;;;;;;26.13;11.70;;;8.30;99.90;;;;;;4885114;29;20475;-47
2021/11/13 10:08:16;;;;;;;18.90;10.00;;;8.50;99.90;;;;;;4907707;23;20496;-49
2021/11/13 10:10:49;;;;;;;22.63;10.20;;;8.60;99.90;;;;;;4884864;29;20469;-50
2021/11/13 10:13:32;;;;;;;19.93;11.10;;;8.70;99.90;;;;;;4898467;23;20491;-54
2021/11/13 10:16:04;;;;;;;19.17;9.90;;;8.90;99.90;;;;;;4903972;29;20440;-51
2021/11/13 10:18:38;;;;;;;18.80;11.07;;;9.20;99.90;;;;;;4911111;23;20488;-47
2021/11/13 10:21:10;;;;;;;22.63;9.17;;;9.70;99.90;;;;;;4903535;29;20423;-48
2021/11/13 10:23:41;;;;;;;22.20;11.37;;;10.00;99.90;;;;;;4911109;23;20490;-51
2021/11/13 10:26:13;;;;;;;15.00;8.50;;;10.10;99.90;;;;;;4904181;29;20435;-54
2021/11/13 10:28:58;;;;;;;29.23;11.53;;;10.10;99.90;;;;;;4911757;23;20495;-51
2021/11/13 10:31:27;;;;;;;16.53;8.50;;;9.90;99.90;;;;;;4904391;29;20427;-50
2021/11/13 10:34:06;;;;;;;20.63;10.10;;;9.60;99.90;;;;;;4905392;23;20529;-50
2021/11/13 10:36:35;;;;;;;19.07;10.00;;;9.40;99.90;;;;;;4885579;29;20431;-54
2021/11/13 10:39:07;;;;;;;16.67;9.33;;;9.20;99.90;;;;;;4892795;23;20502;-55
2021/11/13 10:41:43;;;;;;;18.53;9.43;;;9.10;99.90;;;;;;4885297;29;20448;-57
2021/11/13 10:44:12;;;;;;;16.50;9.37;;;8.90;99.90;;;;;;4892062;23;20480;-58
2021/11/13 10:46:43;;;;;;;24.77;11.37;;;8.90;99.90;;;;;;4923591;23;20532;-56
2021/11/13 10:49:11;;;;;;;18.27;10.53;;;8.90;99.90;;;;;;4884590;29;20452;-48
2021/11/13 10:51:39;;;;;;;22.13;10.27;;;8.90;99.90;;;;;;4899246;23;20543;-53
2021/11/13 10:54:13;;;;;;;22.37;9.40;;;8.90;99.90;;;;;;4884178;29;20463;-51
2021/11/13 10:56:46;;;;;;;19.20;9.40;;;8.80;99.90;;;;;;4907539;23;20475;-53
2021/11/13 10:59:16;;;;;;;24.13;10.37;;;8.80;99.90;;;;;;4884386;29;20448;-54
2021/11/13 11:01:46;;;;;;;19.80;9.40;;;8.80;99.90;;;;;;4891573;23;20532;-50
2021/11/13 11:04:16;;;;;;;18.53;9.60;;;8.80;99.90;;;;;;4884307;29;20492;-53
2021/11/13 11:06:47;;;;;;;21.60;12.27;;;8.80;99.90;;;;;;4891287;23;20499;-52
2021/11/13 11:09:26;;;;;;;18.60;9.47;;;8.90;99.90;;;;;;4884200;29;20453;-49
2021/11/13 11:11:55;;;;;;;21.13;10.13;;;8.90;99.90;;;;;;4894727;23;20467;-48
2021/11/13 11:14:25;;;;;;;18.33;9.30;;;9.00;99.90;;;;;;4902748;29;20484;-49
2021/11/13 11:16:59;;;;;;;18.43;9.53;;;9.00;99.90;;;;;;4908355;23;20431;-49
2021/11/13 11:19:28;;;;;;;22.03;9.57;;;9.00;99.90;;;;;;4884327;29;20423;-53
2021/11/13 11:22:03;;;;;;;17.57;8.83;;;9.00;99.90;;;;;;4893159;23;20441;-50
2021/11/13 11:24:41;;;;;;;19.90;8.77;;;9.10;99.90;;;;;;4902830;23;20505;-50
2021/11/13 11:27:18;;;;;;;16.63;8.20;;;9.10;99.90;;;;;;4902730;29;20531;-53
2021/11/13 11:29:56;;;;;;;21.30;11.60;;;9.20;99.90;;;;;;4912014;23;20517;-52
2021/11/13 11:32:28;;;;;;;19.67;9.50;;;9.20;99.90;;;;;;4883553;29;20416;-57
2021/11/13 11:35:03;;;;;;;15.80;8.63;;;9.10;99.90;;;;;;4891768;23;20552;-54
2021/11/13 11:37:32;;;;;;;16.73;8.07;;;9.00;99.90;;;;;;4884178;29;20448;-55
2021/11/13 11:40:02;;;;;;;22.23;10.90;;;9.10;99.90;;;;;;4903563;23;20467;-55
2021/11/13 11:42:29;;;;;;;17.80;8.77;;;9.10;99.90;;;;;;4903043;29;20997;-54
2021/11/13 11:44:59;;;;;;;16.50;8.57;;;9.00;99.90;;;;;;4909506;23;20482;-53
2021/11/13 11:47:28;;;;;;;17.03;9.27;;;9.00;99.90;;;;;;4902476;29;20431;-52
2021/11/13 11:49:58;;;;;;;17.40;8.20;;;8.90;99.90;;;;;;4909779;23;20502;-51
2021/11/13 11:52:27;;;;;;;16.03;8.77;;;8.80;99.90;;;;;;4902679;29;20439;-53
2021/11/13 11:54:55;;;;;;;15.10;9.40;;;8.80;99.90;;;;;;4909947;23;20479;-55
2021/11/13 11:57:27;;;;;;;14.80;7.40;;;8.90;99.90;;;;;;4903002;29;20455;-54
2021/11/13 11:59:58;;;;;;;14.03;7.37;;;9.00;99.90;;;;;;4909703;23;20491;-54
2021/11/13 12:02:36;;;;;;;19.57;9.50;;;9.10;99.90;;;;;;4902173;29;20546;-56
2021/11/13 12:05:08;;;;;;;13.87;7.80;;;9.10;99.90;;;;;;4909364;23;20527;-55
2021/11/13 12:07:35;;;;;;;21.20;10.63;;;9.20;99.90;;;;;;4902147;29;20495;-48
2021/11/13 12:10:09;;;;;;;14.13;7.13;;;9.30;99.90;;;;;;4909480;23;20478;-55
2021/11/13 12:12:41;;;;;;;18.43;9.13;;;9.40;99.90;;;;;;4902439;29;20480;-50
2021/11/13 12:15:22;;;;;;;13.10;6.93;;;9.40;99.90;;;;;;4908643;23;20490;-54
2021/11/13 12:17:50;;;;;;;15.90;8.73;;;9.50;99.90;;;;;;4901715;29;20448;-52
2021/11/13 12:20:36;;;;;;;20.13;9.10;;;9.60;99.90;;;;;;4908729;23;20471;-50
2021/11/13 12:23:08;;;;;;;17.17;8.30;;;9.60;99.90;;;;;;4901790;29;20423;-51
2021/11/13 12:25:37;;;;;;;17.40;8.77;;;9.50;99.90;;;;;;4921626;23;20543;-53
2021/11/13 12:28:16;;;;;;;14.93;8.17;;;9.40;99.90;;;;;;4883441;29;20444;-51
2021/11/13 12:30:49;;;;;;;16.60;8.73;;;9.40;99.90;;;;;;4905344;23;20477;-50
2021/11/13 12:33:44;;;;;;;13.27;8.87;;;9.40;99.90;;;;;;4883189;29;20423;-51
2021/11/13 12:36:13;;;;;;;21.70;9.20;;;9.30;99.90;;;;;;4893872;23;20471;-52
2021/11/13 12:38:43;;;;;;;16.20;7.30;;;9.40;99.90;;;;;;4901933;29;20451;-51
2021/11/13 12:41:11;;;;;;;12.43;8.13;;;9.50;99.90;;;;;;4921610;23;20504;-49
2021/11/13 12:44:05;;;;;;;18.73;9.03;;;9.40;99.90;;;;;;4882976;29;20433;-50
2021/11/13 12:46:40;;;;;;;14.70;8.80;;;9.50;99.90;;;;;;4894704;23;20494;-51
2021/11/13 12:49:31;;;;;;;22.90;8.53;;;9.50;99.90;;;;;;4909011;23;20491;-53
2021/11/13 12:55:08;;;;;;;15.73;8.23;;;9.60;99.90;;;;;;4908852;23;20491;-52
2021/11/13 12:57:39;;;;;;;17.20;8.40;;;9.60;99.90;;;;;;4910162;23;20442;-50
2021/11/13 13:00:10;;;;;;;18.33;8.40;;;9.60;99.90;;;;;;4905565;29;20433;-54
2021/11/13 13:02:40;;;;;;;12.70;6.77;;;9.60;99.90;;;;;;4928745;23;20420;-48
2021/11/13 13:05:10;;;;;;;23.23;9.03;;;9.70;99.90;;;;;;4903925;29;20487;-49
2021/11/13 13:07:38;;;;;;;12.63;7.03;;;9.70;99.90;;;;;;4905652;29;20431;-55
2021/11/13 13:10:09;;;;;;;15.77;7.97;;;9.70;99.90;;;;;;4927928;23;20495;-59
2021/11/13 13:12:37;;;;;;;14.60;7.43;;;9.70;99.90;;;;;;4905495;29;20439;-53